createdAt,value
2019-01-29T00:00:10.310Z,71.14
2019-01-29T00:02:44.080Z,70.93
2019-01-29T00:05:15.039Z,70.64
2019-01-29T00:07:47.307Z,70.65
2019-01-29T00:10:19.290Z,70.39
2019-01-29T00:12:49.827Z,70.17
2019-01-29T00:15:22.358Z,70.62
2019-01-29T00:17:54.413Z,70.51
2019-01-29T00:20:26.958Z,70.62
2019-01-29T00:22:58.949Z,70.62
2019-01-29T00:25:31.244Z,70.63
2019-01-29T00:28:02.670Z,70.43
2019-01-29T00:30:34.956Z,70.32
2019-01-29T00:33:07.305Z,70.03
2019-01-29T00:35:39.298Z,69.75
2019-01-29T00:38:09.890Z,69.80
2019-01-29T00:40:42.139Z,69.65
2019-01-29T00:43:14.277Z,69.69
2019-01-29T00:45:45.234Z,69.85
2019-01-29T00:48:16.129Z,69.74
2019-01-29T00:50:48.311Z,69.75
2019-01-29T00:53:20.417Z,69.56
2019-01-29T00:55:52.767Z,69.26
2019-01-29T00:58:25.269Z,69.26
2019-01-29T01:00:56.267Z,69.16
2019-01-29T01:03:27.168Z,68.56
2019-01-29T01:05:59.331Z,68.65
2019-01-29T01:08:31.444Z,68.31
2019-01-29T01:11:03.899Z,68.31
2019-01-29T01:13:36.279Z,68.54
2019-01-29T01:16:07.330Z,68.44
2019-01-29T01:18:39.300Z,68.44
2019-01-29T01:21:11.990Z,68.28
2019-01-29T01:23:44.289Z,68.47
2019-01-29T01:26:15.046Z,68.59
2019-01-29T01:28:47.290Z,68.24
2019-01-29T01:31:17.874Z,68.03
2019-01-29T01:33:50.276Z,68.08
2019-01-29T01:36:21.115Z,68.08
2019-01-29T01:38:53.332Z,68.34
2019-01-29T01:41:25.442Z,68.50
2019-01-29T01:43:57.385Z,68.72
2019-01-29T01:46:29.472Z,68.92
2019-01-29T01:49:01.886Z,70.66
2019-01-29T01:51:34.278Z,70.66
2019-01-29T01:54:06.653Z,71.51
2019-01-29T01:56:38.800Z,72.09
2019-01-29T01:59:10.954Z,72.02
2019-01-29T02:01:43.143Z,72.44
2019-01-29T02:04:15.293Z,72.98
2019-01-29T02:06:47.302Z,72.93
2019-01-29T02:09:17.874Z,73.15
2019-01-29T02:11:49.928Z,73.50
2019-01-29T02:14:25.352Z,74.17
2019-01-29T02:16:57.400Z,73.65
2019-01-29T02:19:29.363Z,72.84
2019-01-29T02:22:00.336Z,72.14
2019-01-29T02:24:32.788Z,72.14
2019-01-29T02:27:04.906Z,71.91
2019-01-29T02:29:37.285Z,72.10
2019-01-29T02:32:09.409Z,72.31
2019-01-29T02:34:41.443Z,71.91
2019-01-29T02:37:13.703Z,72.16
2019-01-29T02:39:46.302Z,72.16
2019-01-29T02:42:18.280Z,71.95
2019-01-29T02:44:51.471Z,71.65
2019-01-29T02:47:23.714Z,71.45
2019-01-29T02:49:56.588Z,71.45
2019-01-29T02:52:29.291Z,71.85
2019-01-29T02:55:04.388Z,71.35
2019-01-29T02:57:36.311Z,71.35
2019-01-29T03:00:14.589Z,71.00
2019-01-29T03:02:46.813Z,71.05
2019-01-29T03:05:20.777Z,71.42
2019-01-29T03:07:56.587Z,71.59
2019-01-29T03:10:32.281Z,71.66
2019-01-29T03:13:06.863Z,71.71
2019-01-29T03:15:39.302Z,71.88
2019-01-29T03:18:13.942Z,72.50
2019-01-29T03:20:46.276Z,72.87
2019-01-29T03:23:17.018Z,73.00
2019-01-29T03:25:49.308Z,72.81
2019-01-29T03:28:21.696Z,73.01
2019-01-29T03:30:53.909Z,73.01
2019-01-29T03:33:26.285Z,72.47
2019-01-29T03:35:56.690Z,72.73
2019-01-29T03:38:28.916Z,72.78
2019-01-29T03:41:00.956Z,72.96
2019-01-29T03:43:33.299Z,72.68
2019-01-29T03:46:03.873Z,72.47
2019-01-29T03:48:36.302Z,72.03
2019-01-29T03:51:06.872Z,71.74
2019-01-29T03:53:39.014Z,71.74
2019-01-29T03:56:11.292Z,71.84
2019-01-29T03:58:41.910Z,72.35
2019-01-29T04:01:14.295Z,72.91
2019-01-29T04:03:44.811Z,72.84
2019-01-29T04:06:17.115Z,72.49
2019-01-29T04:08:49.107Z,72.80
2019-01-29T04:11:19.879Z,72.83
2019-01-29T04:13:51.885Z,72.83
2019-01-29T04:16:23.910Z,72.87
2019-01-29T04:18:55.955Z,72.54
2019-01-29T04:21:27.941Z,71.84
2019-01-29T04:23:59.955Z,71.83
2019-01-29T04:26:31.940Z,71.41
2019-01-29T04:29:03.928Z,70.54
2019-01-29T04:31:35.957Z,70.54
2019-01-29T04:34:07.946Z,71.03
2019-01-29T04:36:39.947Z,70.44
2019-01-29T04:39:12.287Z,70.45
2019-01-29T04:41:42.709Z,70.54
2019-01-29T04:44:14.892Z,70.23
2019-01-29T04:46:46.868Z,70.02
2019-01-29T04:49:19.107Z,70.01
2019-01-29T04:51:51.292Z,69.75
2019-01-29T04:54:22.023Z,69.56
2019-01-29T04:56:54.086Z,69.35
2019-01-29T04:59:26.147Z,69.65
2019-01-29T05:01:56.695Z,68.86
2019-01-29T05:04:28.872Z,68.86
2019-01-29T05:07:00.964Z,68.79
2019-01-29T05:09:32.959Z,69.04
2019-01-29T05:12:04.961Z,68.79
2019-01-29T05:14:36.951Z,68.41
2019-01-29T05:17:08.943Z,68.49
2019-01-29T05:19:40.957Z,68.49
2019-01-29T05:22:12.954Z,68.09
2019-01-29T05:24:44.963Z,68.14
2019-01-29T05:27:17.288Z,68.36
2019-01-29T05:29:47.709Z,67.67
2019-01-29T05:32:19.791Z,67.69
2019-01-29T05:34:51.899Z,67.69
2019-01-29T05:37:23.882Z,67.38
2019-01-29T05:39:55.927Z,67.46
2019-01-29T05:42:28.125Z,67.84
2019-01-29T05:45:00.313Z,67.20
2019-01-29T05:47:30.938Z,67.23
2019-01-29T05:50:03.261Z,67.43
2019-01-29T05:52:33.871Z,66.99
2019-01-29T05:55:06.379Z,67.05
2019-01-29T05:57:38.102Z,66.91
2019-01-29T06:00:15.309Z,67.00
2019-01-29T06:02:48.607Z,66.93
2019-01-29T06:05:21.293Z,66.94
2019-01-29T06:07:51.666Z,67.18
2019-01-29T06:10:24.300Z,67.20
2019-01-29T06:12:55.290Z,67.20
2019-01-29T06:15:26.872Z,67.58
2019-01-29T06:17:59.246Z,68.01
2019-01-29T06:20:30.287Z,68.19
2019-01-29T06:23:02.284Z,68.23
2019-01-29T06:25:34.979Z,68.35
2019-01-29T06:28:07.281Z,68.56
2019-01-29T06:30:41.887Z,68.95
2019-01-29T06:33:15.943Z,68.96
2019-01-29T06:35:49.286Z,69.10
2019-01-29T06:38:20.585Z,69.24
2019-01-29T06:40:53.494Z,69.25
2019-01-29T06:43:26.283Z,68.98
2019-01-29T06:45:56.963Z,68.98
2019-01-29T06:48:29.430Z,68.80
2019-01-29T06:51:01.655Z,69.33
2019-01-29T06:53:35.952Z,69.68
2019-01-29T06:56:09.279Z,69.68
2019-01-29T06:58:42.274Z,69.35
2019-01-29T07:01:14.862Z,69.44
2019-01-29T07:03:49.558Z,69.19
2019-01-29T07:06:22.883Z,69.41
2019-01-29T07:08:55.290Z,69.41
2019-01-29T07:11:26.424Z,69.37
2019-01-29T07:13:58.869Z,69.51
2019-01-29T07:16:54.314Z,69.30
2019-01-29T07:19:39.879Z,69.35
2019-01-29T07:22:12.308Z,69.59
2019-01-29T07:24:48.282Z,69.44
2019-01-29T07:27:20.288Z,69.50
2019-01-29T07:29:51.338Z,69.21
2019-01-29T07:32:24.298Z,69.16
2019-01-29T07:34:57.315Z,68.97
2019-01-29T07:37:29.317Z,68.87
2019-01-29T07:40:01.357Z,68.95
2019-01-29T07:42:35.577Z,68.77
2019-01-29T07:45:12.767Z,68.77
2019-01-29T07:47:46.479Z,68.85
2019-01-29T07:50:20.913Z,68.88
2019-01-29T07:52:53.291Z,68.88
2019-01-29T07:55:30.332Z,68.85
2019-01-29T07:58:01.119Z,68.78
2019-01-29T08:00:33.330Z,68.44
2019-01-29T08:03:05.584Z,68.28
2019-01-29T08:05:37.680Z,67.92
2019-01-29T08:08:13.392Z,67.80
2019-01-29T08:10:45.659Z,67.49
2019-01-29T08:13:18.076Z,67.49
2019-01-29T08:15:51.673Z,67.26
2019-01-29T08:18:24.285Z,67.04
2019-01-29T08:20:55.877Z,66.92
2019-01-29T08:23:28.278Z,66.33
2019-01-29T08:26:00.799Z,66.33
2019-01-29T08:28:33.285Z,66.17
2019-01-29T08:31:04.043Z,65.57
2019-01-29T08:33:38.979Z,65.43
2019-01-29T08:36:12.465Z,65.49
2019-01-29T08:38:44.695Z,65.52
2019-01-29T08:41:18.461Z,65.61
2019-01-29T08:43:51.139Z,64.90
2019-01-29T08:46:23.494Z,64.90
2019-01-29T08:48:55.680Z,64.40
2019-01-29T08:51:28.274Z,63.99
2019-01-29T08:53:59.068Z,63.64
2019-01-29T08:56:31.295Z,63.47
2019-01-29T08:59:03.316Z,63.26
2019-01-29T09:01:35.576Z,63.26
2019-01-29T09:04:07.986Z,62.83
2019-01-29T09:06:40.322Z,62.53
2019-01-29T09:09:12.713Z,62.19
2019-01-29T09:11:45.318Z,62.14
2019-01-29T09:14:17.398Z,62.08
2019-01-29T09:16:49.653Z,61.67
2019-01-29T09:19:21.948Z,61.67
2019-01-29T09:21:54.600Z,61.71
2019-01-29T09:24:27.129Z,61.34
2019-01-29T09:26:59.582Z,61.36
2019-01-29T09:29:31.753Z,60.94
2019-01-29T09:32:04.275Z,60.76
2019-01-29T09:34:35.266Z,61.23
2019-01-29T09:37:06.455Z,61.34
2019-01-29T09:39:38.660Z,61.43
2019-01-29T09:42:11.276Z,61.43
2019-01-29T09:44:42.271Z,61.53
2019-01-29T09:47:13.319Z,61.76
2019-01-29T09:49:45.309Z,61.70
2019-01-29T09:52:17.618Z,61.55
2019-01-29T09:54:49.781Z,61.57
2019-01-29T09:57:22.266Z,61.53
2019-01-29T09:59:53.257Z,61.31
2019-01-29T10:02:24.278Z,61.46
2019-01-29T10:04:55.075Z,61.61
2019-01-29T10:07:28.307Z,61.10
2019-01-29T10:10:00.680Z,61.02
2019-01-29T10:12:32.949Z,61.15
2019-01-29T10:15:05.859Z,60.95
2019-01-29T10:17:38.291Z,60.65
2019-01-29T10:20:09.396Z,60.76
2019-01-29T10:22:41.641Z,60.85
2019-01-29T10:25:14.885Z,60.38
2019-01-29T10:27:47.332Z,60.78
2019-01-29T10:30:18.512Z,61.09
2019-01-29T10:32:50.739Z,60.55
2019-01-29T10:35:23.675Z,60.55
2019-01-29T10:37:56.261Z,60.42
2019-01-29T10:40:27.793Z,60.42
2019-01-29T10:43:00.644Z,60.42
2019-01-29T10:45:34.069Z,60.21
2019-01-29T10:48:06.633Z,60.69
2019-01-29T10:50:38.872Z,60.69
2019-01-29T10:53:11.316Z,60.13
2019-01-29T10:55:47.512Z,59.79
2019-01-29T10:58:17.683Z,59.68
2019-01-29T11:00:50.277Z,59.47
2019-01-29T11:03:21.262Z,59.08
2019-01-29T11:05:52.022Z,59.00
2019-01-29T11:08:24.610Z,58.82
2019-01-29T11:10:56.857Z,58.75
2019-01-29T11:13:29.270Z,58.83
2019-01-29T11:16:00.290Z,58.94
2019-01-29T11:18:31.059Z,58.95
2019-01-29T11:21:03.276Z,58.86
2019-01-29T11:23:34.221Z,58.90
2019-01-29T11:26:05.344Z,59.15
2019-01-29T11:28:37.279Z,59.37
2019-01-29T11:31:08.857Z,59.47
2019-01-29T11:33:41.335Z,59.81
2019-01-29T11:36:12.273Z,59.69
2019-01-29T11:38:43.265Z,59.56
2019-01-29T11:41:14.097Z,59.48
2019-01-29T11:43:45.275Z,59.05
2019-01-29T11:46:16.276Z,59.11
2019-01-29T11:48:47.097Z,58.77
2019-01-29T11:51:19.321Z,58.44
2019-01-29T11:53:50.104Z,58.26
2019-01-29T11:56:21.266Z,57.88
2019-01-29T11:58:52.019Z,58.24
2019-01-29T12:01:26.557Z,58.20
2019-01-29T12:03:58.711Z,57.96
2019-01-29T12:06:30.939Z,58.75
2019-01-29T12:09:03.257Z,58.65
2019-01-29T12:11:34.274Z,58.63
2019-01-29T12:14:05.267Z,58.57
2019-01-29T12:16:36.270Z,58.57
2019-01-29T12:19:07.273Z,58.47
2019-01-29T12:21:38.099Z,58.18
2019-01-29T12:24:11.348Z,57.61
2019-01-29T12:26:43.661Z,57.46
2019-01-29T12:29:16.276Z,57.15
2019-01-29T12:31:47.078Z,57.15
2019-01-29T12:34:19.287Z,57.42
2019-01-29T12:36:50.112Z,57.50
2019-01-29T12:39:21.204Z,57.54
2019-01-29T12:41:53.097Z,57.49
2019-01-29T12:44:24.003Z,57.60
2019-01-29T12:46:56.338Z,57.36
2019-01-29T12:49:28.597Z,57.56
2019-01-29T12:52:04.277Z,57.11
2019-01-29T12:54:36.491Z,57.70
2019-01-29T12:57:08.757Z,58.21
2019-01-29T13:02:29.661Z,57.53
2019-01-29T13:05:01.953Z,57.53
2019-01-29T13:07:34.287Z,57.12
2019-01-29T13:10:08.682Z,56.57
2019-01-29T13:12:41.138Z,56.16
2019-01-29T13:15:13.618Z,56.46
2019-01-29T13:17:46.103Z,56.31
2019-01-29T13:20:18.530Z,56.20
2019-01-29T13:22:50.718Z,55.63
2019-01-29T13:25:23.282Z,55.63
2019-01-29T13:27:54.058Z,56.13
2019-01-29T13:30:30.290Z,56.48
2019-01-29T13:33:01.285Z,57.54
2019-01-29T13:35:34.272Z,57.54
2019-01-29T13:38:05.284Z,57.82
2019-01-29T13:40:36.109Z,57.95
2019-01-29T13:43:09.320Z,57.80
2019-01-29T13:45:41.759Z,57.39
2019-01-29T13:48:14.127Z,56.95
2019-01-29T13:50:51.280Z,55.89
2019-01-29T13:53:22.037Z,56.18
2019-01-29T13:55:54.347Z,55.92
2019-01-29T13:58:26.280Z,56.09
2019-01-29T14:00:57.095Z,55.86
2019-01-29T14:03:29.347Z,55.77
2019-01-29T14:06:00.059Z,55.69
2019-01-29T14:08:32.292Z,55.29
2019-01-29T14:11:03.102Z,54.98
2019-01-29T14:13:35.287Z,55.08
2019-01-29T14:16:09.848Z,55.44
2019-01-29T14:18:42.294Z,55.50
2019-01-29T14:21:14.596Z,55.40
2019-01-29T14:23:46.937Z,55.55
2019-01-29T14:26:19.363Z,55.75
2019-01-29T14:28:51.312Z,55.78
2019-01-29T14:31:23.631Z,56.07
2019-01-29T14:33:56.112Z,55.63
2019-01-29T14:36:27.276Z,55.55
2019-01-29T14:39:40.276Z,55.71
2019-01-29T14:42:11.263Z,55.33
2019-01-29T14:44:50.273Z,55.43
2019-01-29T14:47:22.327Z,55.42
2019-01-29T14:49:54.678Z,55.35
2019-01-29T14:52:27.273Z,55.35
2019-01-29T14:54:58.393Z,55.84
2019-01-29T14:57:30.680Z,56.15
2019-01-29T15:00:03.267Z,56.05
2019-01-29T15:02:34.104Z,56.29
2019-01-29T15:05:05.106Z,57.20
2019-01-29T15:07:37.557Z,56.91
2019-01-29T15:10:13.635Z,56.84
2019-01-29T15:12:46.257Z,56.85
2019-01-29T15:15:19.281Z,57.06
2019-01-29T15:17:54.031Z,57.12
2019-01-29T15:20:26.292Z,57.06
2019-01-29T15:22:57.280Z,57.49
2019-01-29T15:25:28.283Z,57.56
2019-01-29T15:27:59.290Z,57.63
2019-01-29T15:30:30.277Z,58.00
2019-01-29T15:33:01.291Z,58.13
2019-01-29T15:35:32.282Z,58.13
2019-01-29T15:38:03.012Z,58.45
2019-01-29T15:40:35.314Z,58.57
2019-01-29T15:43:07.727Z,58.81
2019-01-29T15:45:40.292Z,58.81
2019-01-29T15:48:11.277Z,59.08
2019-01-29T15:50:43.694Z,59.31
2019-01-29T15:53:16.273Z,59.85
2019-01-29T15:55:47.383Z,59.54
2019-01-29T15:58:19.754Z,59.83
2019-01-29T16:00:52.295Z,59.83
2019-01-29T16:03:24.592Z,59.79
2019-01-29T16:05:56.734Z,59.96
2019-01-29T16:08:29.278Z,59.80
2019-01-29T16:11:00.274Z,59.77
2019-01-29T16:13:31.281Z,60.52
2019-01-29T16:16:02.272Z,63.17
2019-01-29T16:19:47.283Z,64.82
2019-01-29T16:22:18.276Z,65.78
2019-01-29T16:24:49.280Z,66.48
2019-01-29T16:27:22.733Z,66.78
2019-01-29T16:29:54.345Z,67.15
2019-01-29T16:32:25.007Z,67.21
2019-01-29T16:34:57.285Z,67.41
2019-01-29T16:39:30.730Z,67.39
2019-01-29T16:42:03.284Z,67.07
2019-01-29T16:44:34.280Z,67.07
2019-01-29T16:47:05.111Z,66.87
2019-01-29T16:49:37.279Z,66.76
2019-01-29T16:52:08.470Z,66.36
2019-01-29T16:54:40.957Z,66.72
2019-01-29T16:57:13.270Z,66.72
2019-01-29T16:59:44.113Z,67.04
2019-01-29T17:02:15.270Z,67.60
2019-01-29T17:04:46.278Z,68.14
2019-01-29T17:07:17.235Z,68.30
2019-01-29T17:09:48.738Z,68.43
2019-01-29T17:12:21.307Z,68.22
2019-01-29T17:14:53.312Z,68.14
2019-01-29T17:17:25.315Z,68.07
2019-01-29T17:21:09.742Z,68.29
2019-01-29T17:23:43.286Z,68.37
2019-01-29T17:26:15.265Z,68.65
2019-01-29T17:28:45.795Z,68.63
2019-01-29T17:31:18.142Z,68.66
2019-01-29T17:33:50.292Z,68.68
2019-01-29T17:36:22.314Z,68.69
2019-01-29T17:38:54.539Z,68.75
2019-01-29T17:41:26.710Z,68.76
2019-01-29T17:46:42.688Z,68.84
2019-01-29T17:49:14.778Z,69.08
2019-01-29T17:51:46.942Z,68.90
2019-01-29T17:54:18.945Z,68.67
2019-01-29T17:56:51.270Z,68.53
2019-01-29T17:59:21.869Z,68.26
2019-01-29T18:01:53.944Z,67.81
2019-01-29T18:04:26.037Z,67.45
2019-01-29T18:06:59.273Z,67.18
2019-01-29T18:09:29.857Z,66.87
2019-01-29T18:12:02.136Z,66.48
2019-01-29T18:14:34.073Z,66.18
2019-01-29T18:17:06.308Z,66.00
2019-01-29T18:19:37.010Z,65.78
2019-01-29T18:22:09.278Z,65.78
2019-01-29T18:24:39.844Z,65.92
2019-01-29T18:27:12.126Z,65.30
2019-01-29T18:29:44.270Z,65.27
2019-01-29T18:32:15.367Z,64.75
2019-01-29T18:34:47.311Z,65.07
2019-01-29T18:37:18.027Z,64.82
2019-01-29T18:39:50.093Z,64.82
2019-01-29T18:42:22.268Z,64.37
2019-01-29T18:44:52.870Z,64.65
2019-01-29T18:47:25.239Z,64.63
2019-01-29T18:49:55.842Z,64.74
2019-01-29T18:52:28.278Z,64.59
2019-01-29T18:54:58.861Z,64.36
2019-01-29T18:57:32.944Z,64.56
2019-01-29T19:00:06.279Z,64.15
2019-01-29T19:02:37.108Z,63.89
2019-01-29T19:05:10.678Z,63.79
2019-01-29T19:07:44.812Z,63.74
2019-01-29T19:10:18.862Z,63.65
2019-01-29T19:12:51.413Z,63.49
2019-01-29T19:15:25.262Z,63.54
2019-01-29T19:17:56.011Z,63.15
2019-01-29T19:23:10.748Z,62.83
2019-01-29T19:25:43.298Z,62.87
2019-01-29T19:28:21.803Z,62.99
2019-01-29T19:30:47.992Z,62.88
2019-01-29T19:33:20.285Z,62.68
2019-01-29T19:35:52.364Z,62.53
2019-01-29T19:38:24.287Z,62.13
2019-01-29T19:40:56.300Z,62.13
2019-01-29T19:43:28.353Z,62.15
2019-01-29T19:46:00.612Z,61.92
2019-01-29T19:48:32.683Z,61.92
2019-01-29T19:51:04.742Z,61.76
2019-01-29T19:53:37.826Z,61.57
2019-01-29T19:56:10.248Z,61.28
2019-01-29T19:58:41.099Z,61.18
2019-01-29T20:01:11.704Z,61.08
2019-01-29T20:03:43.775Z,61.14
2019-01-29T20:06:16.288Z,61.16
2019-01-29T20:08:46.861Z,61.17
2019-01-29T20:11:19.102Z,61.04
2019-01-29T20:13:51.267Z,61.16
2019-01-29T20:16:21.862Z,61.17
2019-01-29T20:18:54.273Z,60.98
2019-01-29T20:21:26.282Z,60.92
2019-01-29T20:23:57.868Z,60.92
2019-01-29T20:26:30.263Z,60.94
2019-01-29T20:29:00.857Z,60.87
2019-01-29T20:31:33.150Z,60.81
2019-01-29T20:34:49.786Z,60.66
2019-01-29T20:37:21.940Z,60.81
2019-01-29T20:39:54.073Z,60.72
2019-01-29T20:42:26.099Z,60.72
2019-01-29T20:44:58.294Z,60.85
2019-01-29T20:47:30.271Z,60.89
2019-01-29T20:50:00.991Z,60.96
2019-01-29T20:52:33.270Z,60.99
2019-01-29T20:55:11.632Z,60.84
2019-01-29T20:57:43.937Z,60.76
2019-01-29T21:00:24.393Z,60.66
2019-01-29T21:02:57.298Z,60.31
2019-01-29T21:05:29.281Z,60.31
2019-01-29T21:08:01.363Z,60.21
2019-01-29T21:10:33.362Z,60.21
2019-01-29T21:13:05.290Z,60.19
2019-01-29T21:15:38.455Z,60.19
2019-01-29T21:18:10.093Z,60.21
2019-01-29T21:20:42.276Z,60.26
2019-01-29T21:23:13.017Z,60.22
2019-01-29T21:25:45.101Z,60.20
2019-01-29T21:28:17.279Z,59.89
2019-01-29T21:30:48.278Z,59.89
2019-01-29T21:33:18.901Z,59.81
2019-01-29T21:35:51.296Z,59.75
2019-01-29T21:38:23.314Z,59.82
2019-01-29T21:40:55.382Z,59.94
2019-01-29T21:43:27.367Z,60.16
2019-01-29T21:45:59.329Z,60.16
2019-01-29T21:48:31.161Z,60.23
2019-01-29T21:52:28.689Z,60.21
2019-01-29T21:55:01.120Z,60.46
2019-01-29T21:57:33.252Z,60.53
2019-01-29T22:00:04.006Z,60.72
2019-01-29T22:02:36.237Z,60.43
2019-01-29T22:05:11.335Z,60.43
2019-01-29T22:07:42.056Z,60.60
2019-01-29T22:10:14.318Z,60.59
2019-01-29T22:12:45.021Z,60.70
2019-01-29T22:15:17.632Z,60.72
2019-01-29T22:17:49.928Z,62.20
2019-01-29T22:20:22.286Z,61.38
2019-01-29T22:22:53.276Z,61.39
2019-01-29T22:25:23.696Z,61.13
2019-01-29T22:27:55.777Z,61.06
2019-01-29T22:30:34.284Z,61.11
2019-01-29T22:33:04.987Z,61.66
2019-01-29T22:35:37.274Z,61.42
2019-01-29T22:38:08.461Z,61.41
2019-01-29T22:40:40.663Z,61.42
2019-01-29T22:43:12.676Z,61.42
2019-01-29T22:45:44.695Z,61.46
2019-01-29T22:48:16.998Z,61.53
2019-01-29T22:50:49.268Z,61.71
2019-01-29T22:53:19.868Z,61.87
2019-01-29T22:55:52.144Z,61.90
2019-01-29T22:58:24.289Z,62.00
2019-01-29T23:01:24.632Z,62.14
2019-01-29T23:04:30.278Z,62.30
2019-01-29T23:07:20.408Z,62.20
2019-01-29T23:09:52.390Z,62.36
2019-01-29T23:12:23.091Z,62.36
2019-01-29T23:14:55.264Z,62.30
2019-01-29T23:17:25.818Z,62.24
2019-01-29T23:19:57.936Z,62.11
2019-01-29T23:22:29.945Z,62.14
2019-01-29T23:25:02.259Z,62.07
2019-01-29T23:27:32.864Z,62.09
2019-01-29T23:30:05.325Z,62.27
2019-01-29T23:32:37.293Z,62.27
2019-01-29T23:35:09.343Z,62.27
2019-01-29T23:37:41.352Z,62.24
2019-01-29T23:40:13.867Z,62.24
2019-01-29T23:42:45.949Z,62.21
2019-01-29T23:45:18.361Z,62.10
2019-01-29T23:47:51.279Z,62.24
2019-01-29T23:50:26.396Z,62.17
2019-01-29T23:52:58.660Z,62.18
2019-01-29T23:55:31.234Z,62.18
2019-01-29T23:58:02.102Z,62.39
